Terminal Aerodrome Forecast
Issued by NWS

Home | Current Version | Previous Version | Text Only | Print | Product List | Glossary On
Versions: 1 2 3 4 5 6 7 8 9 10 11 12 13
000
FTUS46 KLOX 032300 RRA
TAFPMD
TAF
KPMD 032350Z 0400/0424 23024G32KT P6SM FEW090
     FM040130 24016G24KT P6SM SKC
     FM040300 23012KT P6SM SKC
     FM040700 21008KT P6SM SKC
     FM042000 23012KT P6SM FEW050
     FM042200 23025G35KT P6SM SCT050=

USA.gov is the U.S. government's official web portal to all federal, state and local government web resources and services.